createdAt,value
2022-08-20T00:00:32.620Z,0
2022-08-20T00:01:49.725Z,0
2022-08-20T00:03:05.845Z,0
2022-08-20T00:04:22.949Z,0
2022-08-20T00:05:40.053Z,0
2022-08-20T00:06:57.157Z,0
2022-08-20T00:08:14.261Z,0
2022-08-20T00:09:31.366Z,0
2022-08-20T00:10:47.486Z,0
2022-08-20T00:12:04.590Z,0
2022-08-20T00:13:21.696Z,0
2022-08-20T00:14:38.800Z,0
2022-08-20T00:15:55.904Z,0
2022-08-20T00:17:13.008Z,0
2022-08-20T00:18:30.112Z,0
2022-08-20T00:19:47.216Z,0
2022-08-20T00:21:04.320Z,0
2022-08-20T00:22:21.425Z,0
2022-08-20T00:23:38.530Z,0
2022-08-20T00:24:55.634Z,0
2022-08-20T00:26:12.738Z,0
2022-08-20T00:27:28.858Z,0
2022-08-20T00:28:45.962Z,0
2022-08-20T00:30:03.067Z,0
2022-08-20T00:31:20.171Z,0
2022-08-20T00:32:37.275Z,0
2022-08-20T00:33:54.379Z,0
2022-08-20T00:35:11.483Z,0
2022-08-20T00:36:28.588Z,0
2022-08-20T00:37:45.692Z,0
2022-08-20T00:39:02.796Z,0
2022-08-20T00:40:19.900Z,0
2022-08-20T00:41:37.004Z,0
2022-08-20T00:42:54.108Z,0
2022-08-20T00:44:10.229Z,0
2022-08-20T00:45:27.333Z,0
2022-08-20T00:46:44.437Z,0
2022-08-20T00:48:01.542Z,0
2022-08-20T00:49:18.647Z,0
2022-08-20T00:50:35.751Z,0
2022-08-20T00:51:52.855Z,0
2022-08-20T00:53:09.959Z,0
2022-08-20T00:54:27.063Z,0
2022-08-20T00:55:44.168Z,0
2022-08-20T00:57:01.272Z,0
2022-08-20T00:58:18.376Z,0
2022-08-20T00:59:35.480Z,0
2022-08-20T01:00:51.600Z,0
2022-08-20T01:02:08.705Z,0
2022-08-20T01:03:25.809Z,0
2022-08-20T01:04:42.913Z,0
2022-08-20T01:06:00.017Z,0
2022-08-20T01:07:17.122Z,0
2022-08-20T01:08:34.226Z,0
2022-08-20T01:09:51.330Z,0
2022-08-20T01:11:08.434Z,0
2022-08-20T01:12:25.538Z,0
2022-08-20T01:13:42.642Z,0
2022-08-20T01:14:59.747Z,0
2022-08-20T01:16:16.851Z,0
2022-08-20T01:17:32.971Z,0
2022-08-20T01:18:50.076Z,0
2022-08-20T01:20:07.180Z,0
2022-08-20T01:21:24.284Z,0
2022-08-20T01:22:41.388Z,0
2022-08-20T01:23:58.492Z,0
2022-08-20T01:25:15.596Z,0
2022-08-20T01:26:32.701Z,0
2022-08-20T01:27:49.805Z,0
2022-08-20T01:29:06.909Z,0
2022-08-20T01:30:24.013Z,0
2022-08-20T01:31:41.118Z,0
2022-08-20T01:32:58.222Z,0
2022-08-20T01:34:14.342Z,0
2022-08-20T01:35:31.446Z,0
2022-08-20T01:36:48.551Z,0
2022-08-20T01:38:05.655Z,0
2022-08-20T01:39:22.759Z,0
2022-08-20T01:40:39.864Z,0
2022-08-20T01:41:56.968Z,0
2022-08-20T01:43:14.073Z,0
2022-08-20T01:44:31.177Z,0
2022-08-20T01:45:48.281Z,0
2022-08-20T01:47:05.385Z,0
2022-08-20T01:48:22.489Z,0
2022-08-20T01:49:39.593Z,0
2022-08-20T01:50:55.714Z,0
2022-08-20T01:52:12.818Z,0
2022-08-20T01:53:29.922Z,0
2022-08-20T01:54:47.026Z,0
2022-08-20T01:56:04.130Z,0
2022-08-20T01:57:21.234Z,0
2022-08-20T01:58:38.338Z,0
2022-08-20T01:59:55.442Z,0
2022-08-20T02:01:12.546Z,0
2022-08-20T02:02:29.651Z,0
2022-08-20T02:03:46.755Z,0
2022-08-20T02:05:03.859Z,0
2022-08-20T02:06:20.963Z,0
2022-08-20T02:07:37.083Z,0
2022-08-20T02:08:54.188Z,0
2022-08-20T02:10:11.292Z,0
2022-08-20T02:11:28.396Z,0
2022-08-20T02:12:45.500Z,0
2022-08-20T02:14:02.604Z,0
2022-08-20T02:15:19.708Z,0
2022-08-20T02:16:36.812Z,0
2022-08-20T02:17:53.917Z,0
2022-08-20T02:19:11.021Z,0
2022-08-20T02:20:28.125Z,0
2022-08-20T02:21:45.229Z,0
2022-08-20T02:23:02.333Z,0
2022-08-20T02:24:18.453Z,0
2022-08-20T02:25:35.558Z,0
2022-08-20T02:26:52.662Z,0
2022-08-20T02:28:09.766Z,0
2022-08-20T02:29:26.870Z,0
2022-08-20T02:30:43.974Z,0
2022-08-20T02:32:01.079Z,0
2022-08-20T02:33:18.183Z,0
2022-08-20T02:34:35.287Z,0
2022-08-20T02:35:52.391Z,0
2022-08-20T02:37:09.495Z,0
2022-08-20T02:38:26.600Z,0
2022-08-20T02:39:43.704Z,0
2022-08-20T02:40:59.824Z,0
2022-08-20T02:42:16.928Z,0
2022-08-20T02:43:34.032Z,0
2022-08-20T02:44:51.136Z,0
2022-08-20T02:46:08.240Z,0
2022-08-20T02:47:25.345Z,0
2022-08-20T02:48:42.449Z,0
2022-08-20T02:49:59.553Z,0
2022-08-20T02:51:16.657Z,0
2022-08-20T02:52:33.761Z,0
2022-08-20T02:53:50.865Z,0
2022-08-20T02:55:07.969Z,0
2022-08-20T02:56:25.074Z,0
2022-08-20T02:57:41.194Z,0
2022-08-20T02:58:58.298Z,0
2022-08-20T03:00:15.402Z,0
2022-08-20T03:01:32.507Z,0
2022-08-20T03:02:49.611Z,0
2022-08-20T03:04:06.715Z,0
2022-08-20T03:05:23.819Z,0
2022-08-20T03:06:40.923Z,0
2022-08-20T03:07:58.027Z,0
2022-08-20T03:09:15.132Z,0
2022-08-20T03:10:32.236Z,0
2022-08-20T03:11:49.340Z,0
2022-08-20T03:13:06.444Z,0
2022-08-20T03:14:22.564Z,0
2022-08-20T03:15:39.669Z,0
2022-08-20T03:16:56.773Z,0
2022-08-20T03:18:13.877Z,0
2022-08-20T03:19:30.981Z,0
2022-08-20T03:20:48.084Z,0
2022-08-20T03:22:05.188Z,0
2022-08-20T03:23:22.292Z,0
2022-08-20T03:24:39.396Z,0
2022-08-20T03:25:56.500Z,0
2022-08-20T03:27:13.605Z,0
2022-08-20T03:28:30.709Z,0
2022-08-20T03:29:47.813Z,0
2022-08-20T03:31:03.933Z,0
2022-08-20T03:32:21.038Z,0
2022-08-20T03:33:38.142Z,0
2022-08-20T03:34:55.246Z,0
2022-08-20T03:36:12.350Z,0
2022-08-20T03:37:29.454Z,0
2022-08-20T03:38:46.559Z,0
2022-08-20T03:40:03.663Z,0
2022-08-20T03:41:20.767Z,0
2022-08-20T03:42:37.871Z,0
2022-08-20T03:43:54.975Z,0
2022-08-20T03:45:12.080Z,0
2022-08-20T03:46:29.184Z,0
2022-08-20T03:47:45.304Z,0
2022-08-20T03:49:02.408Z,0
2022-08-20T03:50:19.512Z,0
2022-08-20T03:51:36.617Z,0
2022-08-20T03:52:53.721Z,4
2022-08-20T03:54:10.825Z,4
2022-08-20T03:55:27.929Z,0
2022-08-20T03:56:45.033Z,4
2022-08-20T03:58:02.138Z,8
2022-08-20T03:59:19.242Z,8
2022-08-20T04:00:36.346Z,8
2022-08-20T04:01:53.450Z,12
2022-08-20T04:03:10.554Z,16
2022-08-20T04:04:26.674Z,16
2022-08-20T04:05:43.779Z,20
2022-08-20T04:07:00.883Z,24
2022-08-20T04:08:17.987Z,28
2022-08-20T04:09:35.091Z,32
2022-08-20T04:10:52.195Z,36
2022-08-20T04:12:09.298Z,44
2022-08-20T04:13:26.402Z,44
2022-08-20T04:14:43.506Z,48
2022-08-20T04:16:00.610Z,56
2022-08-20T04:17:17.714Z,60
2022-08-20T04:18:34.816Z,68
2022-08-20T04:19:51.920Z,84
2022-08-20T04:21:08.040Z,96
2022-08-20T04:22:25.144Z,108
2022-08-20T04:23:42.248Z,124
2022-08-20T04:24:59.352Z,144
2022-08-20T04:26:16.456Z,156
2022-08-20T04:27:33.561Z,180
2022-08-20T04:28:49.681Z,200
2022-08-20T04:30:06.784Z,220
2022-08-20T04:31:23.889Z,244
2022-08-20T04:32:40.993Z,264
2022-08-20T04:33:58.097Z,288
2022-08-20T04:35:15.200Z,324
2022-08-20T04:36:32.305Z,368
2022-08-20T04:37:49.408Z,424
2022-08-20T04:39:06.513Z,516
2022-08-20T04:40:23.617Z,596
2022-08-20T04:41:40.720Z,656
2022-08-20T04:42:57.825Z,716
2022-08-20T04:44:14.929Z,816
2022-08-20T04:45:31.049Z,932
2022-08-20T04:46:48.153Z,1024
2022-08-20T04:48:05.257Z,1060
2022-08-20T04:49:22.361Z,1100
2022-08-20T04:50:39.466Z,1168
2022-08-20T04:51:56.570Z,1228
2022-08-20T04:53:13.674Z,1344
2022-08-20T04:54:30.778Z,1468
2022-08-20T04:55:47.882Z,1540
2022-08-20T04:57:04.986Z,1660
2022-08-20T04:58:22.090Z,1764
2022-08-20T04:59:39.194Z,1852
2022-08-20T05:00:56.298Z,1964
2022-08-20T05:02:12.418Z,2120
2022-08-20T05:03:29.522Z,2180
2022-08-20T05:04:46.626Z,2352
2022-08-20T05:06:03.729Z,3464
2022-08-20T05:07:20.833Z,2728
2022-08-20T05:08:37.937Z,2240
2022-08-20T05:09:55.041Z,2156
2022-08-20T05:11:12.144Z,2176
2022-08-20T05:12:29.248Z,2304
2022-08-20T05:13:46.352Z,2392
2022-08-20T05:15:03.457Z,2516
2022-08-20T05:16:20.561Z,2828
2022-08-20T05:17:37.665Z,3132
2022-08-20T05:18:53.785Z,3460
2022-08-20T05:20:10.889Z,3468
2022-08-20T05:21:27.993Z,3400
2022-08-20T05:22:45.097Z,3616
2022-08-20T05:24:02.202Z,4192
2022-08-20T05:25:19.306Z,4704
2022-08-20T05:26:36.410Z,5596
2022-08-20T05:27:53.515Z,6324
2022-08-20T05:29:10.619Z,7392
2022-08-20T05:30:27.723Z,6392
2022-08-20T05:31:44.828Z,4732
2022-08-20T05:33:01.932Z,4004
2022-08-20T05:34:19.036Z,3900
2022-08-20T05:35:35.157Z,4224
2022-08-20T05:36:52.261Z,4876
2022-08-20T05:38:09.365Z,6280
2022-08-20T05:39:26.469Z,8652
2022-08-20T05:40:43.573Z,11924
2022-08-20T05:42:00.677Z,16640
2022-08-20T05:43:17.782Z,22528
2022-08-20T05:44:34.886Z,14176
2022-08-20T05:45:51.990Z,22720
2022-08-20T05:47:09.094Z,21600
2022-08-20T05:48:26.198Z,24704
2022-08-20T05:49:43.302Z,28352
2022-08-20T05:51:00.406Z,18528
2022-08-20T05:52:16.526Z,16256
2022-08-20T05:53:33.630Z,14952
2022-08-20T05:54:50.734Z,12808
2022-08-20T05:56:07.838Z,11248
2022-08-20T05:57:24.943Z,10308
2022-08-20T05:58:42.047Z,10104
2022-08-20T05:59:59.151Z,10716
2022-08-20T06:01:16.255Z,11908
2022-08-20T06:02:33.359Z,17856
2022-08-20T06:03:50.463Z,11144
2022-08-20T06:05:07.568Z,11368
2022-08-20T06:06:24.672Z,17184
2022-08-20T06:07:41.777Z,23904
2022-08-20T06:08:57.897Z,30816
2022-08-20T06:10:15.001Z,23744
2022-08-20T06:11:32.105Z,25088
2022-08-20T06:12:49.209Z,24512
2022-08-20T06:14:06.313Z,11796
2022-08-20T06:15:23.416Z,8344
2022-08-20T06:16:40.520Z,7232
2022-08-20T06:17:57.624Z,6192
2022-08-20T06:19:14.728Z,5768
2022-08-20T06:20:31.832Z,5524
2022-08-20T06:21:48.936Z,5008
2022-08-20T06:23:06.040Z,4724
2022-08-20T06:24:23.144Z,4708
2022-08-20T06:25:39.264Z,4840
2022-08-20T06:26:56.368Z,5124
2022-08-20T06:28:13.472Z,5316
2022-08-20T06:29:30.576Z,5136
2022-08-20T06:30:47.680Z,5048
2022-08-20T06:32:04.784Z,5556
2022-08-20T06:33:21.888Z,6204
2022-08-20T06:34:38.992Z,5972
2022-08-20T06:35:56.096Z,5176
2022-08-20T06:37:13.199Z,4384
2022-08-20T06:38:30.303Z,4172
2022-08-20T06:39:47.407Z,4368
2022-08-20T06:41:04.511Z,4644
2022-08-20T06:42:20.631Z,4772
2022-08-20T06:43:37.735Z,4696
2022-08-20T06:44:54.839Z,4152
2022-08-20T06:46:11.943Z,3668
2022-08-20T06:47:29.047Z,3484
2022-08-20T06:48:46.151Z,3548
2022-08-20T06:50:03.255Z,3812
2022-08-20T06:51:20.359Z,3832
2022-08-20T06:52:37.464Z,3684
2022-08-20T06:53:54.568Z,3628
2022-08-20T06:55:11.672Z,3736
2022-08-20T06:56:28.776Z,4072
2022-08-20T06:57:45.880Z,4580
2022-08-20T06:59:02.001Z,5040
2022-08-20T07:00:19.105Z,5256
2022-08-20T07:01:36.209Z,5172
2022-08-20T07:02:53.313Z,5184
2022-08-20T07:04:10.418Z,5224
2022-08-20T07:05:27.522Z,5060
2022-08-20T07:06:44.626Z,4824
2022-08-20T07:08:01.731Z,4760
2022-08-20T07:09:18.835Z,4836
2022-08-20T07:10:35.939Z,4768
2022-08-20T07:11:53.043Z,4568
2022-08-20T07:13:10.147Z,4300
2022-08-20T07:14:27.252Z,4016
2022-08-20T07:15:43.372Z,3756
2022-08-20T07:17:00.476Z,3520
2022-08-20T07:18:17.580Z,3360
2022-08-20T07:19:34.685Z,3356
2022-08-20T07:20:51.789Z,3612
2022-08-20T07:22:08.893Z,3992
2022-08-20T07:23:25.997Z,4180
2022-08-20T07:24:43.102Z,4168
2022-08-20T07:26:00.206Z,4088
2022-08-20T07:27:17.310Z,3820
2022-08-20T07:28:34.414Z,3328
2022-08-20T07:29:51.519Z,2808
2022-08-20T07:31:08.623Z,2412
2022-08-20T07:32:24.743Z,2264
2022-08-20T07:33:41.847Z,2520
2022-08-20T07:34:58.951Z,3120
2022-08-20T07:36:16.055Z,4028
2022-08-20T07:37:33.160Z,4596
2022-08-20T07:38:50.264Z,4084
2022-08-20T07:40:07.368Z,3040
2022-08-20T07:41:24.472Z,2288
2022-08-20T07:42:41.576Z,1976
2022-08-20T07:43:58.681Z,1956
2022-08-20T07:45:15.785Z,2036
2022-08-20T07:46:32.889Z,2052
2022-08-20T07:47:49.993Z,1916
2022-08-20T07:49:06.113Z,1708
2022-08-20T07:50:23.217Z,1692
2022-08-20T07:51:40.321Z,1724
2022-08-20T07:52:57.425Z,1744
2022-08-20T07:54:14.529Z,1760
2022-08-20T07:55:31.633Z,1912
2022-08-20T07:56:48.737Z,2276
2022-08-20T07:58:05.841Z,2236
2022-08-20T07:59:22.946Z,1844
2022-08-20T08:00:40.050Z,1460
2022-08-20T08:01:57.154Z,1188
2022-08-20T08:03:14.258Z,1016
2022-08-20T08:04:31.362Z,1056
2022-08-20T08:05:47.482Z,1256
2022-08-20T08:07:04.586Z,1552
2022-08-20T08:08:21.690Z,1732
2022-08-20T08:09:38.794Z,1760
2022-08-20T08:10:55.898Z,1800
2022-08-20T08:12:13.002Z,1992
2022-08-20T08:13:30.107Z,2544
2022-08-20T08:14:47.211Z,2888
2022-08-20T08:16:04.315Z,4072
2022-08-20T08:17:21.419Z,4216
2022-08-20T08:18:38.524Z,4232
2022-08-20T08:19:55.628Z,3856
2022-08-20T08:21:12.732Z,3304
2022-08-20T08:22:28.852Z,3584
2022-08-20T08:23:45.956Z,4128
2022-08-20T08:25:03.060Z,5268
2022-08-20T08:26:20.164Z,6308
2022-08-20T08:27:37.268Z,7020
2022-08-20T08:28:54.372Z,7568
2022-08-20T08:30:11.476Z,6964
2022-08-20T08:31:28.580Z,7848
2022-08-20T08:32:45.684Z,6892
2022-08-20T08:34:02.788Z,6288
2022-08-20T08:35:19.892Z,6764
2022-08-20T08:36:36.996Z,5128
2022-08-20T08:39:11.204Z,4288
2022-08-20T08:40:27.324Z,3996
2022-08-20T08:41:44.428Z,3672
2022-08-20T08:43:01.532Z,3704
2022-08-20T08:44:18.636Z,3712
2022-08-20T08:45:35.740Z,3612
2022-08-20T08:46:51.860Z,3692
2022-08-20T08:48:08.964Z,4316
2022-08-20T08:49:26.068Z,4772
2022-08-20T08:50:43.172Z,4412
2022-08-20T08:52:00.276Z,4592
2022-08-20T08:53:17.380Z,5000
2022-08-20T08:54:34.484Z,5204
2022-08-20T08:55:51.588Z,4628
2022-08-20T08:57:08.692Z,5676
2022-08-20T08:58:25.796Z,7336
2022-08-20T08:59:42.900Z,7652
2022-08-20T09:01:00.004Z,7020
2022-08-20T09:02:17.108Z,6384
2022-08-20T09:03:33.229Z,6828
2022-08-20T09:04:50.332Z,8344
2022-08-20T09:06:07.437Z,9660
2022-08-20T09:07:24.541Z,10024
2022-08-20T09:08:41.645Z,10108
2022-08-20T09:09:58.749Z,11320
2022-08-20T09:11:15.853Z,11224
2022-08-20T09:12:32.957Z,11684
2022-08-20T09:13:50.062Z,14032
2022-08-20T09:15:07.166Z,15080
2022-08-20T09:16:24.270Z,12352
2022-08-20T09:17:41.375Z,9828
2022-08-20T09:18:58.479Z,7708
2022-08-20T09:20:14.599Z,6072
2022-08-20T09:21:31.704Z,5640
2022-08-20T09:22:48.809Z,7876
2022-08-20T09:24:05.912Z,11896
2022-08-20T09:25:23.016Z,8332
2022-08-20T09:26:40.120Z,7404
2022-08-20T09:27:57.225Z,8300
2022-08-20T09:29:14.327Z,8304
2022-08-20T09:30:31.431Z,7268
2022-08-20T09:31:48.535Z,6792
2022-08-20T09:33:05.639Z,6500
2022-08-20T09:34:22.743Z,6956
2022-08-20T09:35:39.847Z,8148
2022-08-20T09:36:55.967Z,7236
2022-08-20T09:38:13.070Z,6668
2022-08-20T09:39:30.174Z,6388
2022-08-20T09:40:47.278Z,5060
2022-08-20T09:42:04.382Z,4088
2022-08-20T09:43:21.484Z,3496
2022-08-20T09:44:38.588Z,3452
2022-08-20T09:45:55.692Z,3848
2022-08-20T09:47:12.796Z,3612
2022-08-20T09:48:29.900Z,3532
2022-08-20T09:49:47.004Z,3944
2022-08-20T09:51:04.108Z,4656
2022-08-20T09:52:21.213Z,5484
2022-08-20T09:53:37.333Z,6244
2022-08-20T09:54:54.437Z,5260
2022-08-20T09:56:11.541Z,6048
2022-08-20T09:57:28.645Z,4556
2022-08-20T09:58:45.749Z,4364
2022-08-20T10:00:02.853Z,4712
2022-08-20T10:01:19.958Z,5684
2022-08-20T10:02:37.062Z,5792
2022-08-20T10:03:54.167Z,5432
2022-08-20T10:05:11.271Z,6472
2022-08-20T10:06:28.375Z,6100
2022-08-20T10:07:45.479Z,6256
2022-08-20T10:09:02.584Z,6600
2022-08-20T10:10:18.704Z,5892
2022-08-20T10:11:35.808Z,5060
2022-08-20T10:12:52.912Z,5220
2022-08-20T10:14:10.017Z,5984
2022-08-20T10:15:27.121Z,6604
2022-08-20T10:16:44.225Z,8516
2022-08-20T10:18:01.330Z,10148
2022-08-20T10:19:18.434Z,11052
2022-08-20T10:20:35.538Z,9380
2022-08-20T10:21:52.642Z,10500
2022-08-20T10:23:09.746Z,11448
2022-08-20T10:24:26.851Z,9624
2022-08-20T10:25:43.956Z,8016
2022-08-20T10:27:00.076Z,8996
2022-08-20T10:28:17.180Z,8748
2022-08-20T10:29:34.285Z,7388
2022-08-20T10:30:51.389Z,6296
2022-08-20T10:32:08.492Z,5852
2022-08-20T10:33:25.596Z,6068
2022-08-20T10:34:42.700Z,6104
2022-08-20T10:35:59.805Z,5812
2022-08-20T10:37:16.909Z,5836
2022-08-20T10:38:34.013Z,6788
2022-08-20T10:39:51.117Z,6744
2022-08-20T10:41:08.221Z,5684
2022-08-20T10:42:25.325Z,5744
2022-08-20T10:43:41.445Z,5736
2022-08-20T10:44:58.549Z,7592
2022-08-20T10:46:15.653Z,8560
2022-08-20T10:47:32.758Z,7484
2022-08-20T10:48:49.862Z,6612
2022-08-20T10:50:06.966Z,5632
2022-08-20T10:51:24.070Z,4604
2022-08-20T10:52:41.174Z,4444
2022-08-20T10:53:58.278Z,3888
2022-08-20T10:55:15.382Z,3652
2022-08-20T10:56:32.486Z,4428
2022-08-20T10:57:49.590Z,5588
2022-08-20T10:59:06.695Z,6880
2022-08-20T11:00:22.815Z,8652
2022-08-20T11:01:39.919Z,10576
2022-08-20T11:02:57.023Z,11072
2022-08-20T11:04:14.127Z,10916
2022-08-20T11:05:31.231Z,10788
2022-08-20T11:06:48.335Z,7640
2022-08-20T11:08:05.440Z,7016
2022-08-20T11:09:22.544Z,7680
2022-08-20T11:10:39.648Z,7220
2022-08-20T11:11:56.752Z,7504
2022-08-20T11:13:13.856Z,10632
2022-08-20T11:14:30.960Z,12488
2022-08-20T11:15:48.064Z,12656
2022-08-20T11:17:04.184Z,14100
2022-08-20T11:18:21.288Z,13052
2022-08-20T11:19:38.392Z,11660
2022-08-20T11:20:55.496Z,12396
2022-08-20T11:22:12.600Z,16288
2022-08-20T11:23:29.704Z,15968
2022-08-20T11:24:46.808Z,15720
2022-08-20T11:26:03.912Z,16352
2022-08-20T11:27:21.016Z,17216
2022-08-20T11:28:38.120Z,16480
2022-08-20T11:29:55.224Z,15732
2022-08-20T11:31:12.328Z,16352
2022-08-20T11:32:29.432Z,16736
2022-08-20T11:33:45.553Z,16704
2022-08-20T11:35:02.657Z,14948
2022-08-20T11:36:19.761Z,14892
2022-08-20T11:37:36.866Z,13792
2022-08-20T11:38:53.970Z,13532
2022-08-20T11:40:11.074Z,12964
2022-08-20T11:41:28.178Z,12356
2022-08-20T11:42:45.283Z,11928
2022-08-20T11:44:02.387Z,11540
2022-08-20T11:45:19.491Z,10588
2022-08-20T11:46:36.595Z,10516
2022-08-20T11:47:53.699Z,11808
2022-08-20T11:49:10.803Z,11540
2022-08-20T11:50:26.924Z,10988
2022-08-20T11:51:44.028Z,12084
2022-08-20T11:53:01.132Z,12404
2022-08-20T11:54:18.237Z,11528
2022-08-20T11:55:35.341Z,12308
2022-08-20T11:56:52.445Z,13084
2022-08-20T11:58:09.549Z,12628
2022-08-20T11:59:26.653Z,13172
2022-08-20T12:00:43.758Z,13332
2022-08-20T12:02:00.862Z,12312
2022-08-20T12:03:17.966Z,11564
2022-08-20T12:04:35.071Z,11100
2022-08-20T12:05:52.176Z,10904
2022-08-20T12:07:08.296Z,10168
2022-08-20T12:08:25.400Z,10008
2022-08-20T12:09:42.504Z,10796
2022-08-20T12:10:59.609Z,11132
2022-08-20T12:12:16.713Z,11472
2022-08-20T12:13:33.817Z,11912
2022-08-20T12:14:50.921Z,12456
2022-08-20T12:16:08.026Z,12608
2022-08-20T12:17:25.130Z,12908
2022-08-20T12:18:42.234Z,13120
2022-08-20T12:19:59.338Z,11792
2022-08-20T12:21:16.443Z,12352
2022-08-20T12:22:33.545Z,12224
2022-08-20T12:23:49.665Z,11680
2022-08-20T12:25:06.769Z,10760
2022-08-20T12:26:23.873Z,10352
2022-08-20T12:27:40.978Z,10252
2022-08-20T12:28:58.082Z,11200
2022-08-20T12:30:15.186Z,12768
2022-08-20T12:31:32.290Z,12436
2022-08-20T12:32:49.394Z,11780
2022-08-20T12:34:06.498Z,10264
2022-08-20T12:35:23.602Z,8796
2022-08-20T12:36:40.707Z,9076
2022-08-20T12:37:57.811Z,8812
2022-08-20T12:39:14.915Z,10228
2022-08-20T12:40:31.036Z,11744
2022-08-20T12:41:48.140Z,12424
2022-08-20T12:43:05.244Z,12628
2022-08-20T12:44:22.348Z,12664
2022-08-20T12:45:39.452Z,12632
2022-08-20T12:46:56.557Z,11528
2022-08-20T12:48:13.661Z,10296
2022-08-20T12:49:30.765Z,8180
2022-08-20T12:50:47.869Z,7624
2022-08-20T12:52:04.974Z,6892
2022-08-20T12:53:22.078Z,7568
2022-08-20T12:54:39.182Z,7380
2022-08-20T12:55:56.286Z,6788
2022-08-20T12:57:12.407Z,5964
2022-08-20T12:58:29.511Z,7432
2022-08-20T12:59:46.615Z,6708
2022-08-20T13:01:03.719Z,7636
2022-08-20T13:02:20.823Z,7784
2022-08-20T13:03:37.927Z,7392
2022-08-20T13:04:54.048Z,7680
2022-08-20T13:06:11.152Z,6404
2022-08-20T13:07:28.256Z,6824
2022-08-20T13:08:45.360Z,6992
2022-08-20T13:10:02.464Z,7388
2022-08-20T13:11:19.568Z,7500
2022-08-20T13:12:36.672Z,7612
2022-08-20T13:13:53.776Z,7328
2022-08-20T13:15:10.880Z,7184
2022-08-20T13:16:27.984Z,7248
2022-08-20T13:17:45.088Z,7364
2022-08-20T13:19:02.192Z,7568
2022-08-20T13:20:19.296Z,7624
2022-08-20T13:21:35.416Z,7644
2022-08-20T13:22:52.521Z,8284
2022-08-20T13:24:09.625Z,8288
2022-08-20T13:25:26.728Z,8160
2022-08-20T13:26:43.832Z,8580
2022-08-20T13:28:00.936Z,8860
2022-08-20T13:29:18.040Z,9104
2022-08-20T13:30:35.144Z,8956
2022-08-20T13:31:52.248Z,8568
2022-08-20T13:33:09.352Z,7664
2022-08-20T13:34:26.456Z,7096
2022-08-20T13:35:43.560Z,6836
2022-08-20T13:37:00.664Z,6896
2022-08-20T13:38:16.784Z,7200
2022-08-20T13:39:33.889Z,7416
2022-08-20T13:40:50.992Z,7668
2022-08-20T13:42:08.096Z,7696
2022-08-20T13:43:25.200Z,7620
2022-08-20T13:44:42.304Z,7820
2022-08-20T13:45:59.408Z,7896
2022-08-20T13:47:16.512Z,7700
2022-08-20T13:48:33.616Z,7340
2022-08-20T13:49:50.720Z,7084
2022-08-20T13:51:07.824Z,6868
2022-08-20T13:52:24.928Z,6780
2022-08-20T13:53:42.032Z,6792
2022-08-20T13:54:58.152Z,6772
2022-08-20T13:56:15.256Z,6712
2022-08-20T13:57:32.360Z,6564
2022-08-20T13:58:49.464Z,6456
2022-08-20T14:00:06.567Z,6356
2022-08-20T14:01:23.671Z,6352
2022-08-20T14:02:40.775Z,6200
2022-08-20T14:03:57.879Z,6104
2022-08-20T14:05:14.984Z,6136
2022-08-20T14:06:32.087Z,6212
2022-08-20T14:07:49.192Z,6328
2022-08-20T14:09:06.296Z,6272
2022-08-20T14:10:23.399Z,6228
2022-08-20T14:11:39.519Z,6184
2022-08-20T14:12:56.623Z,6232
2022-08-20T14:14:13.727Z,6300
2022-08-20T14:15:30.831Z,6284
2022-08-20T14:16:47.935Z,6276
2022-08-20T14:18:05.039Z,6268
2022-08-20T14:19:22.143Z,6368
2022-08-20T14:20:39.247Z,6660
2022-08-20T14:21:56.351Z,6644
2022-08-20T14:23:13.455Z,6848
2022-08-20T14:24:30.559Z,6696
2022-08-20T14:25:47.663Z,6476
2022-08-20T14:27:04.767Z,6308
2022-08-20T14:28:20.887Z,6152
2022-08-20T14:29:37.991Z,6084
2022-08-20T14:30:55.095Z,6128
2022-08-20T14:32:12.199Z,6024
2022-08-20T14:33:29.303Z,5912
2022-08-20T14:34:46.407Z,5876
2022-08-20T14:36:03.511Z,5832
2022-08-20T14:37:20.615Z,5836
2022-08-20T14:38:37.719Z,5832
2022-08-20T14:39:54.822Z,5804
2022-08-20T14:41:11.927Z,5860
2022-08-20T14:42:29.031Z,5928
2022-08-20T14:43:46.135Z,5848
2022-08-20T14:45:02.255Z,5820
2022-08-20T14:46:19.359Z,5888
2022-08-20T14:47:36.463Z,6056
2022-08-20T14:48:53.567Z,6396
2022-08-20T14:50:10.671Z,6664
2022-08-20T14:51:27.775Z,6792
2022-08-20T14:52:44.879Z,6828
2022-08-20T14:54:01.983Z,6860
2022-08-20T14:55:19.087Z,7028
2022-08-20T14:56:36.191Z,7164
2022-08-20T14:57:53.295Z,7004
2022-08-20T14:59:10.399Z,6868
2022-08-20T15:00:27.503Z,6808
2022-08-20T15:01:43.623Z,6436
2022-08-20T15:03:00.727Z,6252
2022-08-20T15:04:17.832Z,6460
2022-08-20T15:05:34.936Z,6532
2022-08-20T15:06:52.040Z,6008
2022-08-20T15:08:09.144Z,5712
2022-08-20T15:09:26.248Z,5916
2022-08-20T15:10:43.352Z,5436
2022-08-20T15:12:00.456Z,6028
2022-08-20T15:13:17.560Z,5456
2022-08-20T15:14:34.664Z,5336
2022-08-20T15:15:51.768Z,6044
2022-08-20T15:17:08.872Z,6212
2022-08-20T15:18:24.992Z,6128
2022-08-20T15:19:42.096Z,6072
2022-08-20T15:20:59.200Z,6168
2022-08-20T15:22:16.304Z,6152
2022-08-20T15:23:33.408Z,6120
2022-08-20T15:24:50.512Z,6076
2022-08-20T15:26:07.616Z,5840
2022-08-20T15:27:24.720Z,6092
2022-08-20T15:28:41.824Z,6032
2022-08-20T15:29:58.928Z,5896
2022-08-20T15:31:16.032Z,5784
2022-08-20T15:32:33.136Z,5736
2022-08-20T15:33:50.240Z,5736
2022-08-20T15:35:06.360Z,5744
2022-08-20T15:36:23.464Z,5768
2022-08-20T15:37:40.568Z,5760
2022-08-20T15:38:57.672Z,5708
2022-08-20T15:40:14.776Z,5688
2022-08-20T15:41:31.880Z,5644
2022-08-20T15:42:48.984Z,5628
2022-08-20T15:44:06.088Z,5440
2022-08-20T15:45:23.192Z,4952
2022-08-20T15:46:40.296Z,4848
2022-08-20T15:47:57.400Z,4920
2022-08-20T15:49:14.504Z,4956
2022-08-20T15:50:31.608Z,5072
2022-08-20T15:51:47.728Z,5160
2022-08-20T15:53:04.832Z,5256
2022-08-20T15:54:21.936Z,5312
2022-08-20T15:55:39.040Z,5400
2022-08-20T15:56:56.144Z,5460
2022-08-20T15:58:13.248Z,5528
2022-08-20T15:59:30.352Z,5388
2022-08-20T16:00:47.456Z,4788
2022-08-20T16:02:04.559Z,4576
2022-08-20T16:03:21.663Z,4532
2022-08-20T16:04:38.767Z,4708
2022-08-20T16:05:55.871Z,5096
2022-08-20T16:07:12.975Z,5040
2022-08-20T16:08:29.095Z,5268
2022-08-20T16:09:46.199Z,5272
2022-08-20T16:11:03.303Z,5264
2022-08-20T16:12:20.407Z,5208
2022-08-20T16:13:37.511Z,5092
2022-08-20T16:14:54.615Z,4948
2022-08-20T16:16:11.719Z,4784
2022-08-20T16:17:28.823Z,4652
2022-08-20T16:18:45.927Z,4528
2022-08-20T16:20:03.031Z,4476
2022-08-20T16:21:20.135Z,4436
2022-08-20T16:22:37.239Z,4404
2022-08-20T16:23:54.343Z,4384
2022-08-20T16:25:10.463Z,4392
2022-08-20T16:26:27.566Z,4400
2022-08-20T16:27:44.670Z,4364
2022-08-20T16:29:01.774Z,4352
2022-08-20T16:30:18.878Z,4308
2022-08-20T16:31:35.982Z,4252
2022-08-20T16:32:53.086Z,4204
2022-08-20T16:34:10.189Z,4188
2022-08-20T16:35:27.293Z,4136
2022-08-20T16:36:44.397Z,4084
2022-08-20T16:38:01.501Z,4056
2022-08-20T16:39:18.605Z,4016
2022-08-20T16:40:35.709Z,3992
2022-08-20T16:41:51.829Z,3968
2022-08-20T16:43:08.933Z,3932
2022-08-20T16:44:26.037Z,3904
2022-08-20T16:45:43.141Z,3884
2022-08-20T16:47:00.245Z,3852
2022-08-20T16:48:17.349Z,3824
2022-08-20T16:49:34.453Z,3804
2022-08-20T16:50:51.558Z,3780
2022-08-20T16:52:08.661Z,3752
2022-08-20T16:53:25.766Z,3728
2022-08-20T16:54:42.870Z,3712
2022-08-20T16:55:59.974Z,3684
2022-08-20T16:57:17.078Z,3656
2022-08-20T16:58:33.198Z,3612
2022-08-20T16:59:50.304Z,3576
2022-08-20T17:01:07.408Z,3500
2022-08-20T17:02:24.512Z,3452
2022-08-20T17:03:41.616Z,3456
2022-08-20T17:04:58.720Z,3456
2022-08-20T17:06:15.825Z,3444
2022-08-20T17:07:32.929Z,3428
2022-08-20T17:08:50.033Z,3416
2022-08-20T17:10:07.137Z,3388
2022-08-20T17:11:24.241Z,3364
2022-08-20T17:12:41.345Z,3312
2022-08-20T17:13:58.450Z,3276
2022-08-20T17:15:14.570Z,3236
2022-08-20T17:16:31.674Z,3196
2022-08-20T17:17:48.779Z,3148
2022-08-20T17:19:05.883Z,3096
2022-08-20T17:20:22.987Z,3060
2022-08-20T17:21:40.091Z,3012
2022-08-20T17:22:56.210Z,2976
2022-08-20T17:24:13.314Z,2944
2022-08-20T17:25:30.418Z,2908
2022-08-20T17:26:47.522Z,2868
2022-08-20T17:28:04.626Z,2828